sensor_id;sensor_type;location;lat;lon;timestamp;P1;durP1;ratioP1;P2;durP2;ratioP2
61903;SDS011;47857;52.270;6.804;2023-01-01T00:00:57;26.10;;;11.18;;
61903;SDS011;47857;52.270;6.804;2023-01-01T00:03:26;21.83;;;9.48;;
61903;SDS011;47857;52.270;6.804;2023-01-01T00:05:51;20.95;;;9.50;;
61903;SDS011;47857;52.270;6.804;2023-01-01T00:08:16;37.47;;;20.52;;
61903;SDS011;47857;52.270;6.804;2023-01-01T00:10:42;26.38;;;12.70;;
61903;SDS011;47857;52.270;6.804;2023-01-01T00:13:11;22.20;;;10.48;;
61903;SDS011;47857;52.270;6.804;2023-01-01T00:15:38;27.42;;;13.25;;
61903;SDS011;47857;52.270;6.804;2023-01-01T00:18:04;32.00;;;13.70;;
61903;SDS011;47857;52.270;6.804;2023-01-01T00:20:29;25.20;;;13.80;;
61903;SDS011;47857;52.270;6.804;2023-01-01T00:22:55;18.45;;;8.57;;
61903;SDS011;47857;52.270;6.804;2023-01-01T00:25:20;17.58;;;7.53;;
61903;SDS011;47857;52.270;6.804;2023-01-01T00:27:47;13.85;;;5.88;;
61903;SDS011;47857;52.270;6.804;2023-01-01T00:30:12;18.65;;;6.18;;
61903;SDS011;47857;52.270;6.804;2023-01-01T00:32:38;17.05;;;6.00;;
61903;SDS011;47857;52.270;6.804;2023-01-01T00:35:04;16.55;;;6.05;;
61903;SDS011;47857;52.270;6.804;2023-01-01T00:37:30;19.42;;;6.55;;
61903;SDS011;47857;52.270;6.804;2023-01-01T00:39:55;18.42;;;6.32;;
61903;SDS011;47857;52.270;6.804;2023-01-01T00:42:21;14.23;;;6.03;;
61903;SDS011;47857;52.270;6.804;2023-01-01T00:44:46;15.98;;;5.95;;
61903;SDS011;47857;52.270;6.804;2023-01-01T00:47:12;18.75;;;5.90;;
61903;SDS011;47857;52.270;6.804;2023-01-01T00:49:37;13.43;;;5.72;;
61903;SDS011;47857;52.270;6.804;2023-01-01T00:52:03;14.82;;;5.70;;
61903;SDS011;47857;52.270;6.804;2023-01-01T00:54:28;18.73;;;6.05;;
61903;SDS011;47857;52.270;6.804;2023-01-01T00:56:54;16.45;;;5.55;;
61903;SDS011;47857;52.270;6.804;2023-01-01T00:59:21;14.23;;;5.88;;
61903;SDS011;47857;52.270;6.804;2023-01-01T01:01:47;14.45;;;6.13;;
61903;SDS011;47857;52.270;6.804;2023-01-01T01:04:12;14.90;;;6.10;;
61903;SDS011;47857;52.270;6.804;2023-01-01T01:06:38;15.23;;;5.65;;
61903;SDS011;47857;52.270;6.804;2023-01-01T01:09:03;13.43;;;6.75;;
61903;SDS011;47857;52.270;6.804;2023-01-01T01:11:31;15.50;;;7.25;;
61903;SDS011;47857;52.270;6.804;2023-01-01T01:13:56;17.15;;;7.35;;
61903;SDS011;47857;52.270;6.804;2023-01-01T01:18:49;20.42;;;7.97;;
61903;SDS011;47857;52.270;6.804;2023-01-01T01:21:16;19.35;;;8.75;;
61903;SDS011;47857;52.270;6.804;2023-01-01T01:23:43;17.80;;;8.65;;
61903;SDS011;47857;52.270;6.804;2023-01-01T01:26:10;19.63;;;9.57;;
61903;SDS011;47857;52.270;6.804;2023-01-01T01:28:38;18.73;;;9.00;;
61903;SDS011;47857;52.270;6.804;2023-01-01T01:31:03;16.38;;;8.80;;
61903;SDS011;47857;52.270;6.804;2023-01-01T01:33:29;17.73;;;8.68;;
61903;SDS011;47857;52.270;6.804;2023-01-01T01:35:57;21.13;;;9.02;;
61903;SDS011;47857;52.270;6.804;2023-01-01T01:38:23;19.67;;;8.63;;
61903;SDS011;47857;52.270;6.804;2023-01-01T01:40:48;18.15;;;8.65;;
61903;SDS011;47857;52.270;6.804;2023-01-01T01:45:55;16.65;;;8.90;;
61903;SDS011;47857;52.270;6.804;2023-01-01T01:48:37;17.63;;;7.93;;
61903;SDS011;47857;52.270;6.804;2023-01-01T01:51:04;19.38;;;8.05;;
61903;SDS011;47857;52.270;6.804;2023-01-01T01:53:30;17.00;;;7.18;;
61903;SDS011;47857;52.270;6.804;2023-01-01T01:56:02;15.00;;;6.55;;
61903;SDS011;47857;52.270;6.804;2023-01-01T01:58:30;13.93;;;6.10;;
61903;SDS011;47857;52.270;6.804;2023-01-01T02:00:59;14.30;;;5.78;;
61903;SDS011;47857;52.270;6.804;2023-01-01T02:03:26;11.52;;;5.05;;
61903;SDS011;47857;52.270;6.804;2023-01-01T02:05:55;13.07;;;4.75;;
61903;SDS011;47857;52.270;6.804;2023-01-01T02:08:21;13.05;;;4.72;;
61903;SDS011;47857;52.270;6.804;2023-01-01T02:10:47;15.73;;;4.05;;
61903;SDS011;47857;52.270;6.804;2023-01-01T02:13:13;7.68;;;3.92;;
61903;SDS011;47857;52.270;6.804;2023-01-01T02:15:41;13.02;;;4.07;;
61903;SDS011;47857;52.270;6.804;2023-01-01T02:18:13;11.25;;;3.65;;
61903;SDS011;47857;52.270;6.804;2023-01-01T02:29:52;11.70;;;4.03;;
61903;SDS011;47857;52.270;6.804;2023-01-01T02:32:08;12.73;;;4.00;;
61903;SDS011;47857;52.270;6.804;2023-01-01T02:34:41;13.02;;;3.30;;
61903;SDS011;47857;52.270;6.804;2023-01-01T02:37:13;13.70;;;4.03;;
61903;SDS011;47857;52.270;6.804;2023-01-01T02:39:45;9.10;;;3.60;;
61903;SDS011;47857;52.270;6.804;2023-01-01T02:42:14;15.25;;;3.20;;
61903;SDS011;47857;52.270;6.804;2023-01-01T02:44:41;8.18;;;3.03;;
61903;SDS011;47857;52.270;6.804;2023-01-01T02:47:13;12.65;;;3.22;;
61903;SDS011;47857;52.270;6.804;2023-01-01T02:58:07;12.52;;;4.78;;
61903;SDS011;47857;52.270;6.804;2023-01-01T03:01:09;13.55;;;3.10;;
61903;SDS011;47857;52.270;6.804;2023-01-01T03:03:50;6.78;;;2.55;;
61903;SDS011;47857;52.270;6.804;2023-01-01T03:06:41;12.63;;;2.45;;
61903;SDS011;47857;52.270;6.804;2023-01-01T03:09:29;9.98;;;2.35;;
61903;SDS011;47857;52.270;6.804;2023-01-01T03:14:53;13.80;;;2.58;;
61903;SDS011;47857;52.270;6.804;2023-01-01T03:19:57;8.55;;;2.50;;
61903;SDS011;47857;52.270;6.804;2023-01-01T03:22:27;10.85;;;2.40;;
61903;SDS011;47857;52.270;6.804;2023-01-01T03:27:30;8.35;;;2.55;;
61903;SDS011;47857;52.270;6.804;2023-01-01T03:29:59;10.00;;;2.60;;
61903;SDS011;47857;52.270;6.804;2023-01-01T03:32:30;9.65;;;2.38;;
61903;SDS011;47857;52.270;6.804;2023-01-01T03:35:19;10.00;;;2.53;;
61903;SDS011;47857;52.270;6.804;2023-01-01T03:37:48;6.93;;;2.40;;
61903;SDS011;47857;52.270;6.804;2023-01-01T03:40:14;9.50;;;2.65;;
61903;SDS011;47857;52.270;6.804;2023-01-01T03:42:42;6.40;;;2.28;;
61903;SDS011;47857;52.270;6.804;2023-01-01T03:45:21;7.38;;;2.25;;
61903;SDS011;47857;52.270;6.804;2023-01-01T03:47:49;9.65;;;2.35;;
61903;SDS011;47857;52.270;6.804;2023-01-01T03:50:15;8.73;;;2.17;;
61903;SDS011;47857;52.270;6.804;2023-01-01T03:53:06;8.73;;;2.17;;
61903;SDS011;47857;52.270;6.804;2023-01-01T03:55:45;7.97;;;1.95;;
61903;SDS011;47857;52.270;6.804;2023-01-01T03:58:25;12.77;;;2.33;;
61903;SDS011;47857;52.270;6.804;2023-01-01T04:01:17;8.93;;;2.08;;
61903;SDS011;47857;52.270;6.804;2023-01-01T04:03:46;9.35;;;2.08;;
61903;SDS011;47857;52.270;6.804;2023-01-01T04:06:12;10.23;;;2.20;;
61903;SDS011;47857;52.270;6.804;2023-01-01T04:08:38;7.43;;;2.40;;
61903;SDS011;47857;52.270;6.804;2023-01-01T04:11:05;10.07;;;2.03;;
61903;SDS011;47857;52.270;6.804;2023-01-01T04:13:54;13.18;;;2.50;;
61903;SDS011;47857;52.270;6.804;2023-01-01T04:16:19;5.03;;;1.73;;
61903;SDS011;47857;52.270;6.804;2023-01-01T04:18:45;8.02;;;2.20;;
61903;SDS011;47857;52.270;6.804;2023-01-01T04:21:11;11.07;;;2.72;;
61903;SDS011;47857;52.270;6.804;2023-01-01T04:23:36;10.40;;;2.22;;
61903;SDS011;47857;52.270;6.804;2023-01-01T04:26:02;11.45;;;2.20;;
61903;SDS011;47857;52.270;6.804;2023-01-01T04:28:27;7.00;;;2.08;;
61903;SDS011;47857;52.270;6.804;2023-01-01T04:30:53;10.60;;;2.13;;
61903;SDS011;47857;52.270;6.804;2023-01-01T04:33:18;9.00;;;2.20;;
61903;SDS011;47857;52.270;6.804;2023-01-01T04:35:45;8.18;;;2.00;;
61903;SDS011;47857;52.270;6.804;2023-01-01T04:38:12;9.00;;;2.08;;
61903;SDS011;47857;52.270;6.804;2023-01-01T04:40:38;9.05;;;1.73;;
61903;SDS011;47857;52.270;6.804;2023-01-01T04:43:04;6.38;;;1.80;;
61903;SDS011;47857;52.270;6.804;2023-01-01T04:45:29;7.45;;;1.90;;
61903;SDS011;47857;52.270;6.804;2023-01-01T04:47:55;8.20;;;1.92;;
61903;SDS011;47857;52.270;6.804;2023-01-01T04:50:20;6.88;;;1.83;;
61903;SDS011;47857;52.270;6.804;2023-01-01T04:52:46;8.70;;;1.90;;
61903;SDS011;47857;52.270;6.804;2023-01-01T04:55:15;8.80;;;2.25;;
61903;SDS011;47857;52.270;6.804;2023-01-01T04:57:41;7.30;;;2.00;;
61903;SDS011;47857;52.270;6.804;2023-01-01T05:00:07;9.30;;;1.52;;
61903;SDS011;47857;52.270;6.804;2023-01-01T05:02:33;8.65;;;2.10;;
61903;SDS011;47857;52.270;6.804;2023-01-01T05:04:58;8.55;;;1.70;;
61903;SDS011;47857;52.270;6.804;2023-01-01T05:07:24;8.85;;;1.88;;
61903;SDS011;47857;52.270;6.804;2023-01-01T05:09:49;10.10;;;1.60;;
61903;SDS011;47857;52.270;6.804;2023-01-01T05:12:15;6.00;;;1.85;;
61903;SDS011;47857;52.270;6.804;2023-01-01T05:14:40;6.80;;;1.75;;
61903;SDS011;47857;52.270;6.804;2023-01-01T05:17:06;7.38;;;1.90;;
61903;SDS011;47857;52.270;6.804;2023-01-01T05:19:31;6.82;;;1.75;;
61903;SDS011;47857;52.270;6.804;2023-01-01T05:21:56;5.70;;;1.77;;
61903;SDS011;47857;52.270;6.804;2023-01-01T05:24:22;7.85;;;2.20;;
61903;SDS011;47857;52.270;6.804;2023-01-01T05:26:48;8.02;;;1.75;;
61903;SDS011;47857;52.270;6.804;2023-01-01T05:29:14;7.82;;;1.80;;
61903;SDS011;47857;52.270;6.804;2023-01-01T05:31:39;7.38;;;1.90;;
61903;SDS011;47857;52.270;6.804;2023-01-01T05:34:05;6.88;;;1.88;;
61903;SDS011;47857;52.270;6.804;2023-01-01T05:36:31;9.25;;;2.05;;
61903;SDS011;47857;52.270;6.804;2023-01-01T05:38:59;9.48;;;2.28;;
61903;SDS011;47857;52.270;6.804;2023-01-01T05:41:25;6.82;;;1.92;;
61903;SDS011;47857;52.270;6.804;2023-01-01T05:43:51;7.55;;;2.20;;
61903;SDS011;47857;52.270;6.804;2023-01-01T05:46:18;8.50;;;2.00;;
61903;SDS011;47857;52.270;6.804;2023-01-01T05:48:44;8.20;;;2.00;;
61903;SDS011;47857;52.270;6.804;2023-01-01T05:51:17;7.85;;;2.20;;
61903;SDS011;47857;52.270;6.804;2023-01-01T05:53:47;7.32;;;2.00;;
61903;SDS011;47857;52.270;6.804;2023-01-01T05:56:15;4.78;;;1.60;;
61903;SDS011;47857;52.270;6.804;2023-01-01T05:58:42;7.47;;;1.90;;
61903;SDS011;47857;52.270;6.804;2023-01-01T06:01:09;6.00;;;1.70;;
61903;SDS011;47857;52.270;6.804;2023-01-01T06:03:40;9.35;;;1.98;;
61903;SDS011;47857;52.270;6.804;2023-01-01T06:06:07;9.23;;;2.05;;
61903;SDS011;47857;52.270;6.804;2023-01-01T06:08:35;12.43;;;2.17;;
61903;SDS011;47857;52.270;6.804;2023-01-01T06:11:01;6.35;;;2.03;;
61903;SDS011;47857;52.270;6.804;2023-01-01T06:13:29;6.75;;;1.35;;
61903;SDS011;47857;52.270;6.804;2023-01-01T06:15:55;7.07;;;1.63;;
61903;SDS011;47857;52.270;6.804;2023-01-01T06:18:23;6.93;;;1.90;;
61903;SDS011;47857;52.270;6.804;2023-01-01T06:20:52;7.63;;;1.92;;
61903;SDS011;47857;52.270;6.804;2023-01-01T06:23:18;5.45;;;1.70;;
61903;SDS011;47857;52.270;6.804;2023-01-01T06:25:43;8.82;;;1.92;;
61903;SDS011;47857;52.270;6.804;2023-01-01T06:28:09;8.13;;;1.98;;
61903;SDS011;47857;52.270;6.804;2023-01-01T06:30:35;10.52;;;2.00;;
61903;SDS011;47857;52.270;6.804;2023-01-01T06:33:01;7.00;;;1.55;;
61903;SDS011;47857;52.270;6.804;2023-01-01T06:35:27;8.95;;;2.20;;
61903;SDS011;47857;52.270;6.804;2023-01-01T06:37:57;10.52;;;2.00;;
61903;SDS011;47857;52.270;6.804;2023-01-01T06:40:24;9.88;;;2.00;;
61903;SDS011;47857;52.270;6.804;2023-01-01T06:42:49;9.18;;;2.00;;
61903;SDS011;47857;52.270;6.804;2023-01-01T06:45:15;11.98;;;1.92;;
61903;SDS011;47857;52.270;6.804;2023-01-01T06:47:40;7.13;;;1.60;;
61903;SDS011;47857;52.270;6.804;2023-01-01T06:50:06;8.57;;;1.70;;
61903;SDS011;47857;52.270;6.804;2023-01-01T06:52:31;6.53;;;1.60;;
61903;SDS011;47857;52.270;6.804;2023-01-01T06:54:57;6.90;;;1.60;;
61903;SDS011;47857;52.270;6.804;2023-01-01T06:57:22;7.40;;;1.60;;
61903;SDS011;47857;52.270;6.804;2023-01-01T06:59:48;8.50;;;1.50;;
61903;SDS011;47857;52.270;6.804;2023-01-01T07:02:13;7.35;;;1.15;;
61903;SDS011;47857;52.270;6.804;2023-01-01T07:04:39;5.03;;;1.42;;
61903;SDS011;47857;52.270;6.804;2023-01-01T07:07:04;4.35;;;1.25;;
61903;SDS011;47857;52.270;6.804;2023-01-01T07:09:30;6.15;;;1.20;;
61903;SDS011;47857;52.270;6.804;2023-01-01T07:11:58;6.68;;;1.48;;
61903;SDS011;47857;52.270;6.804;2023-01-01T07:14:24;7.20;;;1.33;;
61903;SDS011;47857;52.270;6.804;2023-01-01T07:16:49;6.32;;;1.30;;
61903;SDS011;47857;52.270;6.804;2023-01-01T07:19:15;7.25;;;1.20;;
61903;SDS011;47857;52.270;6.804;2023-01-01T07:21:42;7.68;;;1.73;;
61903;SDS011;47857;52.270;6.804;2023-01-01T07:24:09;5.70;;;1.20;;
61903;SDS011;47857;52.270;6.804;2023-01-01T07:26:36;8.15;;;1.45;;
61903;SDS011;47857;52.270;6.804;2023-01-01T07:29:02;10.10;;;1.83;;
61903;SDS011;47857;52.270;6.804;2023-01-01T07:31:28;6.53;;;1.52;;
61903;SDS011;47857;52.270;6.804;2023-01-01T07:33:53;9.13;;;1.58;;
61903;SDS011;47857;52.270;6.804;2023-01-01T07:36:19;14.70;;;1.85;;
61903;SDS011;47857;52.270;6.804;2023-01-01T07:38:44;6.07;;;1.45;;
61903;SDS011;47857;52.270;6.804;2023-01-01T07:41:10;5.63;;;0.95;;
61903;SDS011;47857;52.270;6.804;2023-01-01T07:43:36;6.90;;;1.25;;
61903;SDS011;47857;52.270;6.804;2023-01-01T07:46:01;4.63;;;1.30;;
61903;SDS011;47857;52.270;6.804;2023-01-01T07:48:27;5.72;;;0.93;;
61903;SDS011;47857;52.270;6.804;2023-01-01T07:50:53;10.00;;;1.10;;
61903;SDS011;47857;52.270;6.804;2023-01-01T07:53:19;4.40;;;1.08;;
61903;SDS011;47857;52.270;6.804;2023-01-01T07:55:44;6.32;;;0.98;;
61903;SDS011;47857;52.270;6.804;2023-01-01T07:58:10;3.67;;;1.02;;
61903;SDS011;47857;52.270;6.804;2023-01-01T08:00:36;5.35;;;0.73;;
61903;SDS011;47857;52.270;6.804;2023-01-01T08:03:01;3.95;;;0.98;;
61903;SDS011;47857;52.270;6.804;2023-01-01T08:05:27;3.35;;;0.60;;
61903;SDS011;47857;52.270;6.804;2023-01-01T08:07:53;5.20;;;1.00;;
61903;SDS011;47857;52.270;6.804;2023-01-01T08:10:19;3.70;;;0.80;;
61903;SDS011;47857;52.270;6.804;2023-01-01T08:12:44;3.38;;;0.65;;
61903;SDS011;47857;52.270;6.804;2023-01-01T08:15:10;4.38;;;0.55;;
61903;SDS011;47857;52.270;6.804;2023-01-01T08:17:37;4.47;;;0.80;;
61903;SDS011;47857;52.270;6.804;2023-01-01T08:20:03;4.05;;;0.70;;
61903;SDS011;47857;52.270;6.804;2023-01-01T08:22:29;2.92;;;0.70;;
61903;SDS011;47857;52.270;6.804;2023-01-01T08:24:55;3.17;;;0.70;;
61903;SDS011;47857;52.270;6.804;2023-01-01T08:27:20;3.33;;;0.70;;
61903;SDS011;47857;52.270;6.804;2023-01-01T08:29:46;2.78;;;0.70;;
61903;SDS011;47857;52.270;6.804;2023-01-01T08:32:11;4.30;;;0.90;;
61903;SDS011;47857;52.270;6.804;2023-01-01T08:34:37;4.40;;;0.60;;
61903;SDS011;47857;52.270;6.804;2023-01-01T08:37:03;5.80;;;0.90;;
61903;SDS011;47857;52.270;6.804;2023-01-01T08:39:28;2.72;;;0.60;;
61903;SDS011;47857;52.270;6.804;2023-01-01T08:41:54;3.75;;;0.50;;
61903;SDS011;47857;52.270;6.804;2023-01-01T08:44:20;5.20;;;0.68;;
61903;SDS011;47857;52.270;6.804;2023-01-01T08:46:45;3.70;;;0.60;;
61903;SDS011;47857;52.270;6.804;2023-01-01T08:49:11;4.60;;;0.60;;
61903;SDS011;47857;52.270;6.804;2023-01-01T08:51:36;2.47;;;0.60;;
61903;SDS011;47857;52.270;6.804;2023-01-01T08:54:02;5.10;;;0.90;;
61903;SDS011;47857;52.270;6.804;2023-01-01T08:56:27;4.45;;;0.80;;
61903;SDS011;47857;52.270;6.804;2023-01-01T08:58:53;4.15;;;0.95;;
61903;SDS011;47857;52.270;6.804;2023-01-01T09:01:18;4.97;;;1.02;;
61903;SDS011;47857;52.270;6.804;2023-01-01T09:03:46;4.28;;;1.08;;
61903;SDS011;47857;52.270;6.804;2023-01-01T09:06:12;7.03;;;0.93;;
61903;SDS011;47857;52.270;6.804;2023-01-01T09:08:38;3.20;;;0.70;;
61903;SDS011;47857;52.270;6.804;2023-01-01T09:11:03;6.22;;;1.00;;
61903;SDS011;47857;52.270;6.804;2023-01-01T09:13:29;6.82;;;1.17;;
61903;SDS011;47857;52.270;6.804;2023-01-01T09:15:55;4.97;;;0.88;;
61903;SDS011;47857;52.270;6.804;2023-01-01T09:18:21;4.78;;;0.70;;
61903;SDS011;47857;52.270;6.804;2023-01-01T09:20:47;4.45;;;0.90;;
61903;SDS011;47857;52.270;6.804;2023-01-01T09:23:13;7.68;;;1.15;;
61903;SDS011;47857;52.270;6.804;2023-01-01T09:25:38;5.53;;;1.20;;
61903;SDS011;47857;52.270;6.804;2023-01-01T09:28:07;4.68;;;1.05;;
61903;SDS011;47857;52.270;6.804;2023-01-01T09:30:35;6.40;;;1.23;;
61903;SDS011;47857;52.270;6.804;2023-01-01T09:33:01;3.88;;;1.20;;
61903;SDS011;47857;52.270;6.804;2023-01-01T09:35:27;3.95;;;1.23;;
61903;SDS011;47857;52.270;6.804;2023-01-01T09:37:54;5.07;;;1.35;;
61903;SDS011;47857;52.270;6.804;2023-01-01T09:48:37;5.57;;;1.48;;
61903;SDS011;47857;52.270;6.804;2023-01-01T09:51:08;7.22;;;1.70;;
61903;SDS011;47857;52.270;6.804;2023-01-01T09:53:45;6.85;;;1.95;;
61903;SDS011;47857;52.270;6.804;2023-01-01T09:56:23;9.90;;;2.10;;
61903;SDS011;47857;52.270;6.804;2023-01-01T09:58:50;6.07;;;1.60;;
61903;SDS011;47857;52.270;6.804;2023-01-01T10:07:01;7.68;;;1.40;;
61903;SDS011;47857;52.270;6.804;2023-01-01T10:14:43;8.85;;;1.80;;
61903;SDS011;47857;52.270;6.804;2023-01-01T10:17:18;9.25;;;1.90;;
61903;SDS011;47857;52.270;6.804;2023-01-01T10:19:55;8.30;;;1.67;;
61903;SDS011;47857;52.270;6.804;2023-01-01T10:22:24;9.07;;;1.73;;
61903;SDS011;47857;52.270;6.804;2023-01-01T10:24:58;9.68;;;1.65;;
61903;SDS011;47857;52.270;6.804;2023-01-01T10:27:40;7.32;;;1.83;;
61903;SDS011;47857;52.270;6.804;2023-01-01T10:30:29;7.70;;;1.75;;
61903;SDS011;47857;52.270;6.804;2023-01-01T10:32:55;10.82;;;2.03;;
61903;SDS011;47857;52.270;6.804;2023-01-01T10:35:33;9.43;;;1.70;;
61903;SDS011;47857;52.270;6.804;2023-01-01T10:38:00;10.45;;;2.10;;
61903;SDS011;47857;52.270;6.804;2023-01-01T10:40:27;8.10;;;1.90;;
61903;SDS011;47857;52.270;6.804;2023-01-01T10:42:54;6.32;;;1.90;;
61903;SDS011;47857;52.270;6.804;2023-01-01T10:50:50;7.43;;;1.70;;
61903;SDS011;47857;52.270;6.804;2023-01-01T10:53:21;9.75;;;1.83;;
61903;SDS011;47857;52.270;6.804;2023-01-01T10:56:13;7.18;;;1.52;;
61903;SDS011;47857;52.270;6.804;2023-01-01T11:01:08;8.32;;;1.67;;
61903;SDS011;47857;52.270;6.804;2023-01-01T11:04:00;7.70;;;1.67;;
61903;SDS011;47857;52.270;6.804;2023-01-01T11:06:35;6.60;;;1.55;;
61903;SDS011;47857;52.270;6.804;2023-01-01T11:09:02;8.05;;;1.80;;
61903;SDS011;47857;52.270;6.804;2023-01-01T11:11:39;11.32;;;1.83;;
61903;SDS011;47857;52.270;6.804;2023-01-01T11:14:13;7.88;;;1.85;;
61903;SDS011;47857;52.270;6.804;2023-01-01T11:16:44;12.85;;;2.47;;
61903;SDS011;47857;52.270;6.804;2023-01-01T11:19:21;8.90;;;2.13;;
61903;SDS011;47857;52.270;6.804;2023-01-01T11:21:48;9.57;;;2.28;;
61903;SDS011;47857;52.270;6.804;2023-01-01T11:24:24;9.45;;;2.17;;
61903;SDS011;47857;52.270;6.804;2023-01-01T11:26:52;9.32;;;1.95;;
61903;SDS011;47857;52.270;6.804;2023-01-01T11:29:20;10.65;;;2.22;;
61903;SDS011;47857;52.270;6.804;2023-01-01T11:31:49;10.57;;;1.90;;
61903;SDS011;47857;52.270;6.804;2023-01-01T11:34:36;12.30;;;2.47;;
61903;SDS011;47857;52.270;6.804;2023-01-01T11:37:18;11.10;;;2.13;;
61903;SDS011;47857;52.270;6.804;2023-01-01T11:40:00;7.38;;;2.10;;
61903;SDS011;47857;52.270;6.804;2023-01-01T11:42:27;11.13;;;2.45;;
61903;SDS011;47857;52.270;6.804;2023-01-01T11:44:56;10.23;;;2.38;;
61903;SDS011;47857;52.270;6.804;2023-01-01T11:47:30;7.97;;;2.25;;
61903;SDS011;47857;52.270;6.804;2023-01-01T11:52:44;8.32;;;1.80;;
61903;SDS011;47857;52.270;6.804;2023-01-01T11:55:12;10.52;;;1.77;;
61903;SDS011;47857;52.270;6.804;2023-01-01T11:58:00;11.82;;;1.88;;
61903;SDS011;47857;52.270;6.804;2023-01-01T12:00:31;7.68;;;1.65;;
61903;SDS011;47857;52.270;6.804;2023-01-01T12:05:50;9.70;;;1.90;;
61903;SDS011;47857;52.270;6.804;2023-01-01T12:08:22;9.52;;;1.75;;
61903;SDS011;47857;52.270;6.804;2023-01-01T12:13:27;12.68;;;2.10;;
61903;SDS011;47857;52.270;6.804;2023-01-01T12:21:24;9.05;;;1.98;;
61903;SDS011;47857;52.270;6.804;2023-01-01T12:23:50;13.98;;;2.30;;
61903;SDS011;47857;52.270;6.804;2023-01-01T12:29:06;8.70;;;2.05;;
61903;SDS011;47857;52.270;6.804;2023-01-01T12:37:32;12.02;;;2.30;;
61903;SDS011;47857;52.270;6.804;2023-01-01T12:48:26;12.27;;;2.25;;
61903;SDS011;47857;52.270;6.804;2023-01-01T12:54:15;11.52;;;2.20;;
61903;SDS011;47857;52.270;6.804;2023-01-01T12:56:56;8.88;;;2.20;;
61903;SDS011;47857;52.270;6.804;2023-01-01T12:59:34;12.43;;;2.53;;
61903;SDS011;47857;52.270;6.804;2023-01-01T13:02:01;10.50;;;2.80;;
61903;SDS011;47857;52.270;6.804;2023-01-01T13:04:28;12.50;;;2.35;;
61903;SDS011;47857;52.270;6.804;2023-01-01T13:07:00;8.45;;;2.40;;
61903;SDS011;47857;52.270;6.804;2023-01-01T13:09:35;8.57;;;2.42;;
61903;SDS011;47857;52.270;6.804;2023-01-01T13:12:10;11.48;;;2.88;;
61903;SDS011;47857;52.270;6.804;2023-01-01T13:14:41;17.92;;;7.57;;
61903;SDS011;47857;52.270;6.804;2023-01-01T13:17:28;14.32;;;4.65;;
61903;SDS011;47857;52.270;6.804;2023-01-01T13:19:57;12.45;;;3.97;;
61903;SDS011;47857;52.270;6.804;2023-01-01T13:35:42;12.52;;;3.63;;
61903;SDS011;47857;52.270;6.804;2023-01-01T13:51:44;11.80;;;3.60;;
61903;SDS011;47857;52.270;6.804;2023-01-01T13:59:45;16.17;;;3.70;;
61903;SDS011;47857;52.270;6.804;2023-01-01T14:02:27;14.38;;;4.05;;
61903;SDS011;47857;52.270;6.804;2023-01-01T14:04:57;16.95;;;3.97;;
61903;SDS011;47857;52.270;6.804;2023-01-01T14:12:55;14.32;;;3.30;;
61903;SDS011;47857;52.270;6.804;2023-01-01T14:17:55;11.93;;;3.60;;
61903;SDS011;47857;52.270;6.804;2023-01-01T14:20:39;20.17;;;4.20;;
61903;SDS011;47857;52.270;6.804;2023-01-01T14:23:10;14.82;;;3.60;;
61903;SDS011;47857;52.270;6.804;2023-01-01T14:25:39;18.73;;;4.40;;
61903;SDS011;47857;52.270;6.804;2023-01-01T14:28:10;15.25;;;3.40;;
61903;SDS011;47857;52.270;6.804;2023-01-01T14:30:39;13.98;;;3.35;;
61903;SDS011;47857;52.270;6.804;2023-01-01T14:33:18;14.45;;;3.28;;
61903;SDS011;47857;52.270;6.804;2023-01-01T14:35:56;14.63;;;4.00;;
61903;SDS011;47857;52.270;6.804;2023-01-01T14:38:33;10.85;;;3.10;;
61903;SDS011;47857;52.270;6.804;2023-01-01T14:43:37;13.82;;;3.70;;
61903;SDS011;47857;52.270;6.804;2023-01-01T14:46:03;15.73;;;3.55;;
61903;SDS011;47857;52.270;6.804;2023-01-01T14:48:30;15.60;;;3.25;;
61903;SDS011;47857;52.270;6.804;2023-01-01T14:50:55;12.40;;;3.30;;
61903;SDS011;47857;52.270;6.804;2023-01-01T14:53:23;15.48;;;3.58;;
61903;SDS011;47857;52.270;6.804;2023-01-01T14:55:56;14.50;;;3.45;;
61903;SDS011;47857;52.270;6.804;2023-01-01T14:58:23;14.85;;;3.45;;
61903;SDS011;47857;52.270;6.804;2023-01-01T15:00:50;12.20;;;3.40;;
61903;SDS011;47857;52.270;6.804;2023-01-01T15:03:17;11.38;;;3.53;;
61903;SDS011;47857;52.270;6.804;2023-01-01T15:05:45;13.65;;;3.50;;
61903;SDS011;47857;52.270;6.804;2023-01-01T15:08:22;18.65;;;3.70;;
61903;SDS011;47857;52.270;6.804;2023-01-01T15:10:48;14.27;;;3.72;;
61903;SDS011;47857;52.270;6.804;2023-01-01T15:13:21;16.92;;;5.97;;
61903;SDS011;47857;52.270;6.804;2023-01-01T15:15:49;15.95;;;6.30;;
61903;SDS011;47857;52.270;6.804;2023-01-01T15:21:00;16.35;;;4.97;;
61903;SDS011;47857;52.270;6.804;2023-01-01T15:26:29;14.25;;;5.05;;
61903;SDS011;47857;52.270;6.804;2023-01-01T15:29:01;15.68;;;3.88;;
61903;SDS011;47857;52.270;6.804;2023-01-01T15:31:42;12.80;;;3.90;;
61903;SDS011;47857;52.270;6.804;2023-01-01T15:34:25;15.13;;;4.15;;
61903;SDS011;47857;52.270;6.804;2023-01-01T15:39:43;22.58;;;6.65;;
61903;SDS011;47857;52.270;6.804;2023-01-01T15:42:22;17.55;;;6.15;;
61903;SDS011;47857;52.270;6.804;2023-01-01T15:44:48;16.42;;;5.03;;
61903;SDS011;47857;52.270;6.804;2023-01-01T15:47:14;19.73;;;5.30;;
61903;SDS011;47857;52.270;6.804;2023-01-01T15:49:40;12.88;;;4.78;;
61903;SDS011;47857;52.270;6.804;2023-01-01T15:52:14;18.85;;;5.13;;
61903;SDS011;47857;52.270;6.804;2023-01-01T15:54:43;19.70;;;6.20;;
61903;SDS011;47857;52.270;6.804;2023-01-01T15:57:20;18.42;;;6.00;;
61903;SDS011;47857;52.270;6.804;2023-01-01T15:59:47;15.43;;;5.63;;
61903;SDS011;47857;52.270;6.804;2023-01-01T16:02:23;20.00;;;6.70;;
61903;SDS011;47857;52.270;6.804;2023-01-01T16:04:51;19.40;;;5.95;;
61903;SDS011;47857;52.270;6.804;2023-01-01T16:07:18;19.35;;;5.80;;
61903;SDS011;47857;52.270;6.804;2023-01-01T16:09:48;19.67;;;6.55;;
61903;SDS011;47857;52.270;6.804;2023-01-01T16:12:14;24.23;;;9.57;;
61903;SDS011;47857;52.270;6.804;2023-01-01T16:14:40;27.42;;;12.73;;
61903;SDS011;47857;52.270;6.804;2023-01-01T16:17:08;68.72;;;41.22;;
61903;SDS011;47857;52.270;6.804;2023-01-01T16:19:37;34.20;;;16.67;;
61903;SDS011;47857;52.270;6.804;2023-01-01T16:22:02;30.00;;;13.43;;
61903;SDS011;47857;52.270;6.804;2023-01-01T16:24:28;21.63;;;9.32;;
61903;SDS011;47857;52.270;6.804;2023-01-01T16:26:54;22.50;;;9.50;;
61903;SDS011;47857;52.270;6.804;2023-01-01T16:29:19;26.83;;;8.50;;
61903;SDS011;47857;52.270;6.804;2023-01-01T16:31:45;18.33;;;7.35;;
61903;SDS011;47857;52.270;6.804;2023-01-01T16:34:13;20.42;;;5.80;;
61903;SDS011;47857;52.270;6.804;2023-01-01T16:36:39;15.70;;;5.63;;
61903;SDS011;47857;52.270;6.804;2023-01-01T16:39:04;19.75;;;6.05;;
61903;SDS011;47857;52.270;6.804;2023-01-01T16:41:30;18.63;;;5.35;;
61903;SDS011;47857;52.270;6.804;2023-01-01T16:43:55;26.48;;;9.35;;
61903;SDS011;47857;52.270;6.804;2023-01-01T16:46:21;22.30;;;8.68;;
61903;SDS011;47857;52.270;6.804;2023-01-01T16:48:47;16.58;;;6.90;;
61903;SDS011;47857;52.270;6.804;2023-01-01T16:51:17;16.38;;;5.75;;
61903;SDS011;47857;52.270;6.804;2023-01-01T16:53:44;16.02;;;5.78;;
61903;SDS011;47857;52.270;6.804;2023-01-01T16:56:10;15.25;;;5.07;;
61903;SDS011;47857;52.270;6.804;2023-01-01T16:58:39;17.13;;;5.28;;
61903;SDS011;47857;52.270;6.804;2023-01-01T17:01:05;18.23;;;5.30;;
61903;SDS011;47857;52.270;6.804;2023-01-01T17:03:31;11.35;;;5.00;;
61903;SDS011;47857;52.270;6.804;2023-01-01T17:05:57;19.30;;;4.88;;
61903;SDS011;47857;52.270;6.804;2023-01-01T17:08:22;13.98;;;4.57;;
61903;SDS011;47857;52.270;6.804;2023-01-01T17:10:48;13.43;;;4.32;;
61903;SDS011;47857;52.270;6.804;2023-01-01T17:13:13;13.82;;;4.35;;